createdAt,value
2019-05-21T00:01:06.372Z,32.70
2019-05-21T00:03:38.330Z,32.60
2019-05-21T00:06:09.847Z,32.67
2019-05-21T00:08:41.767Z,32.65
2019-05-21T00:11:13.401Z,32.65
2019-05-21T00:13:45.043Z,32.62
2019-05-21T00:16:17.002Z,33.00
2019-05-21T00:18:48.902Z,33.04
2019-05-21T00:21:20.436Z,33.11
2019-05-21T00:23:52.175Z,33.06
2019-05-21T00:26:25.636Z,32.99
2019-05-21T00:29:32.131Z,32.95
2019-05-21T00:32:38.648Z,33.07
2019-05-21T00:35:51.356Z,32.89
2019-05-21T00:38:58.074Z,33.22
2019-05-21T00:42:02.942Z,33.33
2019-05-21T00:44:39.968Z,33.46
2019-05-21T00:47:13.997Z,33.43
2019-05-21T00:49:45.932Z,33.40
2019-05-21T00:52:17.840Z,33.55
2019-05-21T00:54:49.739Z,33.51
2019-05-21T00:57:21.944Z,33.32
2019-05-21T00:59:54.146Z,33.69
2019-05-21T01:02:26.162Z,33.96
2019-05-21T01:05:00.699Z,33.90
2019-05-21T01:07:30.705Z,33.90
2019-05-21T01:10:02.391Z,34.10
2019-05-21T01:12:34.374Z,34.07
2019-05-21T01:15:06.240Z,34.12
2019-05-21T01:17:37.625Z,34.26
2019-05-21T01:20:09.669Z,34.00
2019-05-21T01:22:41.239Z,34.89
2019-05-21T01:25:13.294Z,34.81
2019-05-21T01:27:45.166Z,34.81
2019-05-21T01:30:16.905Z,34.88
2019-05-21T01:32:48.650Z,34.81
2019-05-21T01:35:22.147Z,34.82
2019-05-21T01:37:53.451Z,34.95
2019-05-21T01:40:25.143Z,35.00
2019-05-21T01:42:56.844Z,35.31
2019-05-21T01:45:28.349Z,35.39
2019-05-21T01:47:59.875Z,35.24
2019-05-21T01:50:31.646Z,35.15
2019-05-21T01:53:03.220Z,35.15
2019-05-21T01:55:35.041Z,35.39
2019-05-21T01:58:06.970Z,35.46
2019-05-21T02:00:38.950Z,35.70
2019-05-21T02:03:10.561Z,35.92
2019-05-21T02:05:42.163Z,35.39
2019-05-21T02:08:13.577Z,35.91
2019-05-21T02:10:45.139Z,36.21
2019-05-21T02:13:16.863Z,36.21
2019-05-21T02:15:48.510Z,36.13
2019-05-21T02:18:19.922Z,36.31
2019-05-21T02:20:51.514Z,36.74
2019-05-21T02:23:23.107Z,36.68
2019-05-21T02:25:54.484Z,36.68
2019-05-21T02:28:26.430Z,36.40
2019-05-21T02:30:58.190Z,36.74
2019-05-21T02:33:29.684Z,36.69
2019-05-21T02:36:01.116Z,36.90
2019-05-21T02:38:32.859Z,37.05
2019-05-21T02:41:04.300Z,37.06
2019-05-21T02:43:35.671Z,37.06
2019-05-21T02:46:07.206Z,37.20
2019-05-21T02:48:38.729Z,36.96
2019-05-21T02:51:10.219Z,37.27
2019-05-21T02:53:41.843Z,37.20
2019-05-21T02:56:13.554Z,37.38
2019-05-21T02:58:44.997Z,37.22
2019-05-21T03:01:47.652Z,37.41
2019-05-21T03:04:19.669Z,37.73
2019-05-21T03:06:52.899Z,37.73
2019-05-21T03:09:24.853Z,37.59
2019-05-21T03:11:56.459Z,37.57
2019-05-21T03:14:28.391Z,37.07
2019-05-21T03:16:59.962Z,37.54
2019-05-21T03:19:31.666Z,37.30
2019-05-21T03:22:03.390Z,37.18
2019-05-21T03:24:35.201Z,37.18
2019-05-21T03:27:07.320Z,37.54
2019-05-21T03:29:39.220Z,37.54
2019-05-21T03:32:10.707Z,37.82
2019-05-21T03:34:42.353Z,37.97
2019-05-21T03:37:13.579Z,38.08
2019-05-21T03:39:45.241Z,38.25
2019-05-21T03:42:16.958Z,38.04
2019-05-21T03:44:59.570Z,38.04
2019-05-21T03:47:22.561Z,38.29
2019-05-21T03:49:54.633Z,38.34
2019-05-21T03:52:26.773Z,38.44
2019-05-21T03:55:02.640Z,38.40
2019-05-21T03:57:31.448Z,38.40
2019-05-21T04:00:02.912Z,37.96
2019-05-21T04:02:34.857Z,37.98
2019-05-21T04:05:06.720Z,38.23
2019-05-21T04:07:38.110Z,38.39
2019-05-21T04:10:17.206Z,37.99
2019-05-21T04:13:09.513Z,37.83
2019-05-21T04:16:06.859Z,37.80
2019-05-21T04:18:52.807Z,38.36
2019-05-21T04:21:24.311Z,38.41
2019-05-21T04:23:56.132Z,38.76
2019-05-21T04:26:27.669Z,38.83
2019-05-21T04:28:59.075Z,38.94
2019-05-21T04:31:30.955Z,38.99
2019-05-21T04:34:02.363Z,38.95
2019-05-21T04:36:33.931Z,39.22
2019-05-21T04:39:06.055Z,38.98
2019-05-21T04:41:38.026Z,39.18
2019-05-21T04:44:09.438Z,39.27
2019-05-21T04:46:40.808Z,39.22
2019-05-21T04:49:12.559Z,38.77
2019-05-21T04:51:44.225Z,38.85
2019-05-21T04:54:15.867Z,39.10
2019-05-21T04:56:47.425Z,39.10
2019-05-21T04:59:18.807Z,38.71
2019-05-21T05:01:50.110Z,39.17
2019-05-21T05:04:22.295Z,39.11
2019-05-21T05:06:53.840Z,39.11
2019-05-21T05:09:25.572Z,39.23
2019-05-21T05:11:57.252Z,39.23
2019-05-21T05:14:28.974Z,39.35
2019-05-21T05:17:00.418Z,39.35
2019-05-21T05:19:31.829Z,39.29
2019-05-21T05:22:03.735Z,39.35
2019-05-21T05:24:37.087Z,39.17
2019-05-21T05:27:08.919Z,39.52
2019-05-21T05:29:40.470Z,39.52
2019-05-21T05:32:11.994Z,39.84
2019-05-21T05:34:44.137Z,39.84
2019-05-21T05:37:15.853Z,39.64
2019-05-21T05:39:47.246Z,39.47
2019-05-21T05:42:18.683Z,39.67
2019-05-21T05:44:50.468Z,39.67
2019-05-21T05:47:22.228Z,39.93
2019-05-21T05:49:55.319Z,39.87
2019-05-21T05:52:27.226Z,39.79
2019-05-21T05:54:59.108Z,39.93
2019-05-21T05:57:30.734Z,39.93
2019-05-21T06:00:02.415Z,40.19
2019-05-21T06:02:35.167Z,40.13
2019-05-21T06:05:07.298Z,40.13
2019-05-21T06:08:03.110Z,39.71
2019-05-21T06:11:09.547Z,39.70
2019-05-21T06:14:00.269Z,39.76
2019-05-21T06:17:08.825Z,39.76
2019-05-21T06:20:02.504Z,40.13
2019-05-21T06:26:06.495Z,40.04
2019-05-21T06:29:08.183Z,40.36
2019-05-21T06:31:53.555Z,40.22
2019-05-21T06:34:41.008Z,40.06
2019-05-21T06:37:30.534Z,39.87
2019-05-21T06:40:19.078Z,39.90
2019-05-21T06:43:07.263Z,39.90
2019-05-21T06:45:56.132Z,40.06
2019-05-21T06:48:44.655Z,40.01
2019-05-21T06:51:32.265Z,39.75
2019-05-21T06:54:20.823Z,39.80
2019-05-21T06:57:10.083Z,40.08
2019-05-21T06:59:59.399Z,40.02
2019-05-21T07:02:46.919Z,40.02
2019-05-21T07:05:36.180Z,40.27
2019-05-21T07:08:34.036Z,39.94
2019-05-21T07:11:17.784Z,40.31
2019-05-21T07:14:05.872Z,40.46
2019-05-21T07:16:54.088Z,40.38
2019-05-21T07:19:42.813Z,40.38
2019-05-21T07:22:30.818Z,40.24
2019-05-21T07:25:18.700Z,39.95
2019-05-21T07:28:09.461Z,40.03
2019-05-21T07:30:58.839Z,40.36
2019-05-21T07:33:47.491Z,40.52
2019-05-21T07:36:36.955Z,40.64
2019-05-21T07:39:25.813Z,40.47
2019-05-21T07:42:11.735Z,40.24
2019-05-21T07:45:01.386Z,40.63
2019-05-21T07:47:43.013Z,40.71
2019-05-21T07:50:22.204Z,41.04
2019-05-21T07:53:00.947Z,41.03
2019-05-21T07:55:38.220Z,40.27
2019-05-21T07:58:15.611Z,39.43
2019-05-21T08:00:52.535Z,39.76
2019-05-21T08:03:31.203Z,39.76
2019-05-21T08:06:08.162Z,40.62
2019-05-21T08:08:45.451Z,39.54
2019-05-21T08:11:25.293Z,39.77
2019-05-21T08:14:00.609Z,40.32
2019-05-21T08:16:35.590Z,39.94
2019-05-21T08:19:11.211Z,40.62
2019-05-21T08:21:45.526Z,40.62
2019-05-21T08:24:20.479Z,39.54
2019-05-21T08:26:53.642Z,39.54
2019-05-21T08:29:27.957Z,39.23
2019-05-21T08:32:00.811Z,39.23
2019-05-21T08:34:33.504Z,38.92
2019-05-21T08:37:07.347Z,39.71
2019-05-21T08:39:39.642Z,39.71
2019-05-21T08:42:12.998Z,40.29
2019-05-21T08:44:46.552Z,39.68
2019-05-21T08:47:18.886Z,39.68
2019-05-21T08:49:50.904Z,40.33
2019-05-21T08:52:23.446Z,40.32
2019-05-21T08:55:05.918Z,40.22
2019-05-21T08:57:42.830Z,40.49
2019-05-21T09:00:33.908Z,40.31
2019-05-21T09:03:21.181Z,40.10
2019-05-21T09:06:10.863Z,40.29
2019-05-21T09:08:58.754Z,39.23
2019-05-21T09:11:47.433Z,39.13
2019-05-21T09:14:34.982Z,38.60
2019-05-21T09:17:23.707Z,39.98
2019-05-21T09:20:11.639Z,39.98
2019-05-21T09:23:01.911Z,40.08
2019-05-21T09:25:50.656Z,40.08
2019-05-21T09:28:38.288Z,40.01
2019-05-21T09:31:25.545Z,40.29
2019-05-21T09:34:12.703Z,40.37
2019-05-21T09:37:00.210Z,40.55
2019-05-21T09:39:47.815Z,40.23
2019-05-21T09:42:35.710Z,40.23
2019-05-21T09:45:23.141Z,40.74
2019-05-21T09:48:12.370Z,40.75
2019-05-21T09:51:00.103Z,40.77
2019-05-21T09:53:47.205Z,40.68
2019-05-21T09:56:40.918Z,40.67
2019-05-21T09:59:44.702Z,40.67
2019-05-21T10:02:34.900Z,40.80
2019-05-21T10:05:22.989Z,41.75
2019-05-21T10:08:37.380Z,41.75
2019-05-21T10:11:39.174Z,41.82
2019-05-21T10:14:28.896Z,40.77
2019-05-21T10:17:39.347Z,41.13
2019-05-21T10:20:34.669Z,41.59
2019-05-21T10:26:52.692Z,41.07
2019-05-21T10:29:45.355Z,40.75
2019-05-21T10:32:42.794Z,40.78
2019-05-21T10:35:54.227Z,41.41
2019-05-21T10:38:44.480Z,41.18
2019-05-21T10:41:40.754Z,41.87
2019-05-21T10:44:53.951Z,41.36
2019-05-21T10:47:55.943Z,41.72
2019-05-21T10:54:08.996Z,41.75
2019-05-21T10:57:11.202Z,41.67
2019-05-21T11:03:20.489Z,41.59
2019-05-21T11:06:21.288Z,41.69
2019-05-21T11:12:41.119Z,41.62
2019-05-21T11:15:49.762Z,41.46
2019-05-21T11:18:55.364Z,41.46
2019-05-21T11:21:50.475Z,41.48
2019-05-21T11:24:46.049Z,41.71
2019-05-21T11:27:44.640Z,41.89
2019-05-21T11:30:51.063Z,41.91
2019-05-21T11:33:55.186Z,41.75
2019-05-21T11:36:55.870Z,41.70
2019-05-21T11:39:51.311Z,41.79
2019-05-21T11:42:42.632Z,41.50
2019-05-21T11:45:49.164Z,41.35
2019-05-21T11:48:44.821Z,41.60
2019-05-21T11:51:34.665Z,41.60
2019-05-21T11:54:28.390Z,41.35
2019-05-21T11:57:19.999Z,41.64
2019-05-21T12:00:21.593Z,41.64
2019-05-21T12:03:15.273Z,41.66
2019-05-21T12:06:03.970Z,41.56
2019-05-21T12:08:57.502Z,41.64
2019-05-21T12:11:54.195Z,41.39
2019-05-21T12:14:55.840Z,41.45
2019-05-21T12:17:44.490Z,41.45
2019-05-21T12:20:39.874Z,41.31
2019-05-21T12:23:32.343Z,41.35
2019-05-21T12:26:26.669Z,41.18
2019-05-21T12:29:19.029Z,41.01
2019-05-21T12:32:07.439Z,41.22
2019-05-21T12:35:07.738Z,41.30
2019-05-21T12:38:05.620Z,40.91
2019-05-21T12:40:57.441Z,40.63
2019-05-21T12:43:48.817Z,40.67
2019-05-21T12:46:36.184Z,40.67
2019-05-21T12:49:26.743Z,39.86
2019-05-21T12:52:18.987Z,39.95
2019-05-21T12:55:07.182Z,39.95
2019-05-21T12:57:57.189Z,39.96
2019-05-21T13:00:49.010Z,40.62
2019-05-21T13:03:36.856Z,40.62
2019-05-21T13:06:26.879Z,40.69
2019-05-21T13:09:32.229Z,40.19
2019-05-21T13:12:06.670Z,40.12
2019-05-21T13:15:02.662Z,40.03
2019-05-21T13:17:49.402Z,39.66
2019-05-21T13:20:38.233Z,40.30
2019-05-21T13:23:25.665Z,39.82
2019-05-21T13:26:15.454Z,39.59
2019-05-21T13:29:02.700Z,40.34
2019-05-21T13:31:50.239Z,40.34
2019-05-21T13:34:37.132Z,39.92
2019-05-21T13:37:24.288Z,40.04
2019-05-21T13:40:10.681Z,39.62
2019-05-21T13:42:58.293Z,39.62
2019-05-21T13:45:46.577Z,39.96
2019-05-21T13:48:34.590Z,39.94
2019-05-21T13:51:21.981Z,39.23
2019-05-21T13:54:09.811Z,39.34
2019-05-21T13:56:57.833Z,38.67
2019-05-21T13:59:31.714Z,38.67
2019-05-21T14:02:03.445Z,38.76
2019-05-21T14:04:35.132Z,38.21
2019-05-21T14:07:07.231Z,38.57
2019-05-21T14:09:38.551Z,38.21
2019-05-21T14:12:10.468Z,37.19
2019-05-21T14:14:42.332Z,37.19
2019-05-21T14:17:13.980Z,36.95
2019-05-21T14:19:45.636Z,37.00
2019-05-21T14:22:17.236Z,37.14
2019-05-21T14:24:50.502Z,37.17
2019-05-21T14:27:22.133Z,36.82
2019-05-21T14:29:53.910Z,37.14
2019-05-21T14:32:25.735Z,37.15
2019-05-21T14:35:01.177Z,37.04
2019-05-21T14:37:30.542Z,36.82
2019-05-21T14:40:02.282Z,37.02
2019-05-21T14:42:33.666Z,37.08
2019-05-21T14:45:05.690Z,36.95
2019-05-21T14:47:37.392Z,36.81
2019-05-21T14:50:10.542Z,36.70
2019-05-21T14:52:41.987Z,36.70
2019-05-21T14:55:13.814Z,37.34
2019-05-21T14:57:45.280Z,37.35
2019-05-21T15:00:43.195Z,37.34
2019-05-21T15:03:24.915Z,37.34
2019-05-21T15:05:48.150Z,37.34
2019-05-21T15:08:19.557Z,37.43
2019-05-21T15:10:54.496Z,37.43
2019-05-21T15:13:25.640Z,37.37
2019-05-21T15:15:58.544Z,37.28
2019-05-21T15:18:30.069Z,37.28
2019-05-21T15:21:12.613Z,37.34
2019-05-21T15:23:44.907Z,37.40
2019-05-21T15:26:17.395Z,37.31
2019-05-21T15:28:48.920Z,37.34
2019-05-21T15:31:21.086Z,37.33
2019-05-21T15:33:52.571Z,37.33
2019-05-21T15:36:24.276Z,37.22
2019-05-21T15:38:56.191Z,37.31
2019-05-21T15:41:27.790Z,37.24
2019-05-21T15:43:59.142Z,37.01
2019-05-21T15:46:47.137Z,37.21
2019-05-21T15:49:04.433Z,37.36
2019-05-21T15:51:36.091Z,37.43
2019-05-21T15:54:07.849Z,38.94
2019-05-21T15:56:39.542Z,38.87
2019-05-21T15:59:11.170Z,38.87
2019-05-21T16:01:44.071Z,39.03
2019-05-21T16:04:16.778Z,39.25
2019-05-21T16:06:49.316Z,39.25
2019-05-21T16:09:21.162Z,39.07
2019-05-21T16:11:52.987Z,39.07
2019-05-21T16:14:24.823Z,39.07
2019-05-21T16:16:56.886Z,39.14
2019-05-21T16:19:28.297Z,39.04
2019-05-21T16:22:00.109Z,39.08
2019-05-21T16:24:31.706Z,39.09
2019-05-21T16:27:37.361Z,38.91
2019-05-21T16:30:09.687Z,38.91
2019-05-21T16:32:41.962Z,38.94
2019-05-21T16:35:13.769Z,38.94
2019-05-21T16:37:46.821Z,38.97
2019-05-21T16:40:18.712Z,38.86
2019-05-21T16:42:50.659Z,38.68
2019-05-21T16:45:23.889Z,38.68
2019-05-21T16:47:56.426Z,38.60
2019-05-21T16:50:29.408Z,38.57
2019-05-21T16:53:01.121Z,38.24
2019-05-21T16:55:33.470Z,38.36
2019-05-21T16:58:05.541Z,38.38
2019-05-21T17:00:37.183Z,38.14
2019-05-21T17:03:09.047Z,38.18
2019-05-21T17:05:40.768Z,38.52
2019-05-21T17:08:12.900Z,38.54
2019-05-21T17:10:44.396Z,38.07
2019-05-21T17:13:16.140Z,38.20
2019-05-21T17:15:47.739Z,38.06
2019-05-21T17:18:19.897Z,38.07
2019-05-21T17:20:51.650Z,37.66
2019-05-21T17:23:24.606Z,37.66
2019-05-21T17:25:56.252Z,37.65
2019-05-21T17:28:27.970Z,37.41
2019-05-21T17:30:59.473Z,37.34
2019-05-21T17:33:31.205Z,37.17
2019-05-21T17:36:02.528Z,37.17
2019-05-21T17:38:34.766Z,37.10
2019-05-21T17:41:06.408Z,37.10
2019-05-21T17:43:38.276Z,36.39
2019-05-21T17:46:09.852Z,36.39
2019-05-21T17:48:41.775Z,36.46
2019-05-21T17:51:13.311Z,36.68
2019-05-21T17:53:45.415Z,36.49
2019-05-21T17:56:17.121Z,36.80
2019-05-21T17:58:48.899Z,36.71
2019-05-21T18:01:20.850Z,36.82
2019-05-21T18:03:52.812Z,36.82
2019-05-21T18:06:25.362Z,36.77
2019-05-21T18:08:57.181Z,36.80
2019-05-21T18:11:29.024Z,36.73
2019-05-21T18:14:00.773Z,36.69
2019-05-21T18:16:32.693Z,36.73
2019-05-21T18:19:08.391Z,36.76
2019-05-21T18:21:38.839Z,36.53
2019-05-21T18:24:10.606Z,36.59
2019-05-21T18:26:42.336Z,35.57
2019-05-21T18:29:13.692Z,35.76
2019-05-21T18:31:45.566Z,35.76
2019-05-21T18:34:18.084Z,35.94
2019-05-21T18:36:49.549Z,35.83
2019-05-21T18:39:21.504Z,36.03
2019-05-21T18:41:53.432Z,36.03
2019-05-21T18:44:24.944Z,35.99
2019-05-21T18:46:57.455Z,35.89
2019-05-21T18:49:28.869Z,35.91
2019-05-21T18:52:00.663Z,35.92
2019-05-21T18:54:32.389Z,35.95
2019-05-21T18:57:03.962Z,35.82
2019-05-21T18:59:35.689Z,35.82
2019-05-21T19:02:08.363Z,35.88
2019-05-21T19:04:40.027Z,35.78
2019-05-21T19:07:12.304Z,35.54
2019-05-21T19:09:44.362Z,35.54
2019-05-21T19:12:16.179Z,35.87
2019-05-21T19:14:48.114Z,36.12
2019-05-21T19:17:34.306Z,35.86
2019-05-21T19:19:56.119Z,35.73
2019-05-21T19:22:27.846Z,35.78
2019-05-21T19:24:59.836Z,35.88
2019-05-21T19:27:31.372Z,35.79
2019-05-21T19:30:03.652Z,35.47
2019-05-21T19:32:36.850Z,35.56
2019-05-21T19:35:08.700Z,35.53
2019-05-21T19:37:40.520Z,35.30
2019-05-21T19:40:12.772Z,35.48
2019-05-21T19:42:54.293Z,35.56
2019-05-21T19:45:20.339Z,35.65
2019-05-21T19:47:52.064Z,35.65
2019-05-21T19:50:24.187Z,35.82
2019-05-21T19:52:56.332Z,35.92
2019-05-21T19:55:29.080Z,35.56
2019-05-21T19:58:00.851Z,35.55
2019-05-21T20:00:35.965Z,35.67
2019-05-21T20:03:08.070Z,35.58
2019-05-21T20:05:40.239Z,35.33
2019-05-21T20:08:12.168Z,35.29
2019-05-21T20:10:44.836Z,35.05
2019-05-21T20:13:16.833Z,35.02
2019-05-21T20:15:48.098Z,35.16
2019-05-21T20:18:20.203Z,35.54
2019-05-21T20:20:53.050Z,35.54
2019-05-21T20:23:26.301Z,35.45
2019-05-21T20:25:57.935Z,35.15
2019-05-21T20:28:29.696Z,35.15
2019-05-21T20:31:01.471Z,34.93
2019-05-21T20:33:35.063Z,34.29
2019-05-21T20:36:08.634Z,34.25
2019-05-21T20:38:40.968Z,34.52
2019-05-21T20:41:12.738Z,34.80
2019-05-21T20:43:58.290Z,34.84
2019-05-21T20:46:19.064Z,34.60
2019-05-21T20:48:50.948Z,34.28
2019-05-21T20:51:22.774Z,34.70
2019-05-21T20:53:54.620Z,34.70
2019-05-21T20:56:26.175Z,34.31
2019-05-21T20:58:58.076Z,34.26
2019-05-21T21:01:30.174Z,34.26
2019-05-21T21:04:03.020Z,34.18
2019-05-21T21:06:36.354Z,34.18
2019-05-21T21:09:10.622Z,33.88
2019-05-21T21:11:42.816Z,33.80
2019-05-21T21:14:18.316Z,33.80
2019-05-21T21:16:50.476Z,33.68
2019-05-21T21:19:21.868Z,33.82
2019-05-21T21:21:53.504Z,34.13
2019-05-21T21:24:24.992Z,34.16
2019-05-21T21:26:59.282Z,34.10
2019-05-21T21:29:30.923Z,33.94
2019-05-21T21:32:02.367Z,33.93
2019-05-21T21:34:33.883Z,34.32
2019-05-21T21:37:07.325Z,34.25
2019-05-21T21:39:39.144Z,34.51
2019-05-21T21:42:11.935Z,34.57
2019-05-21T21:44:43.627Z,34.57
2019-05-21T21:47:16.038Z,34.62
2019-05-21T21:49:49.609Z,34.03
2019-05-21T21:52:21.504Z,34.17
2019-05-21T21:54:53.833Z,34.01
2019-05-21T21:57:25.505Z,33.88
2019-05-21T21:59:57.793Z,34.01
2019-05-21T22:02:34.252Z,34.11
2019-05-21T22:05:09.151Z,34.11
2019-05-21T22:07:40.863Z,34.30
2019-05-21T22:10:12.737Z,34.12
2019-05-21T22:12:44.554Z,34.22
2019-05-21T22:15:16.388Z,34.22
2019-05-21T22:17:48.597Z,34.21
2019-05-21T22:20:21.335Z,34.44
2019-05-21T22:22:52.682Z,34.44
2019-05-21T22:25:25.205Z,34.33
2019-05-21T22:28:01.129Z,34.23
2019-05-21T22:30:33.186Z,34.23
2019-05-21T22:33:04.968Z,34.27
2019-05-21T22:35:36.500Z,34.22
2019-05-21T22:38:08.309Z,34.40
2019-05-21T22:40:40.880Z,34.40
2019-05-21T22:43:13.345Z,34.19
2019-05-21T22:45:45.316Z,34.18
2019-05-21T22:48:16.750Z,34.18
2019-05-21T22:50:48.606Z,34.23
2019-05-21T22:53:20.519Z,34.31
2019-05-21T22:55:52.192Z,34.17
2019-05-21T22:58:23.947Z,34.02
2019-05-21T23:00:57.104Z,34.10
2019-05-21T23:03:28.900Z,34.23
2019-05-21T23:06:01.103Z,34.23
2019-05-21T23:08:33.480Z,34.37
2019-05-21T23:11:05.155Z,33.93
2019-05-21T23:13:37.137Z,33.93
2019-05-21T23:16:09.757Z,34.21
2019-05-21T23:18:43.098Z,34.00
2019-05-21T23:21:23.128Z,34.13
2019-05-21T23:23:56.335Z,34.13
2019-05-21T23:26:28.086Z,34.12
2019-05-21T23:29:00.249Z,33.98
2019-05-21T23:31:32.530Z,33.91
2019-05-21T23:34:05.552Z,33.91
2019-05-21T23:36:38.313Z,33.92
2019-05-21T23:39:15.964Z,33.88
2019-05-21T23:41:47.996Z,33.88
2019-05-21T23:44:19.281Z,33.61
2019-05-21T23:46:51.094Z,33.61
2019-05-21T23:49:22.805Z,33.61
2019-05-21T23:51:54.283Z,33.24
2019-05-21T23:54:25.781Z,33.24
2019-05-21T23:56:57.924Z,33.34
2019-05-21T23:59:29.777Z,33.83
